createdAt,value
2022-10-18T00:01:21.950Z,100.00
2022-10-18T00:04:38.272Z,100.00
2022-10-18T00:07:54.283Z,100.00
2022-10-18T00:14:25.714Z,100.00
2022-10-18T00:17:43.537Z,100.00
2022-10-18T00:21:10.373Z,100.00
2022-10-18T00:24:26.598Z,100.00
2022-10-18T00:31:24.908Z,100.00
2022-10-18T00:34:41.024Z,100.00
2022-10-18T00:37:57.187Z,100.00
2022-10-18T00:45:08.760Z,100.00
2022-10-18T00:48:27.426Z,100.00
2022-10-18T00:51:48.808Z,100.00
2022-10-18T00:58:23.182Z,100.00
2022-10-18T01:01:39.303Z,100.00
2022-10-18T01:04:55.750Z,100.00
2022-10-18T01:08:39.893Z,100.00
2022-10-18T01:15:16.498Z,100.00
2022-10-18T01:18:37.318Z,100.00
2022-10-18T01:21:58.588Z,100.00
2022-10-18T01:25:28.489Z,100.00
2022-10-18T01:29:01.093Z,100.00
2022-10-18T01:32:22.065Z,100.00
2022-10-18T01:35:42.258Z,100.00
2022-10-18T01:39:01.709Z,100.00
2022-10-18T01:42:22.874Z,100.00
2022-10-18T01:45:39.610Z,100.00
2022-10-18T01:48:56.250Z,100.00
2022-10-18T01:52:12.592Z,100.00
2022-10-18T01:58:49.584Z,100.00
2022-10-18T02:02:15.045Z,100.00
2022-10-18T02:05:36.758Z,100.00
2022-10-18T02:08:57.103Z,100.00
2022-10-18T02:15:34.427Z,100.00
2022-10-18T02:18:54.719Z,100.00
2022-10-18T02:22:12.001Z,100.00
2022-10-18T02:25:32.809Z,100.00
2022-10-18T02:28:49.099Z,100.00
2022-10-18T02:32:11.238Z,100.00
2022-10-18T02:35:32.157Z,100.00
2022-10-18T02:38:49.751Z,100.00
2022-10-18T02:42:07.528Z,100.00
2022-10-18T02:45:25.626Z,100.00
2022-10-18T02:48:41.635Z,100.00
2022-10-18T02:51:59.155Z,100.00
2022-10-18T03:00:44.862Z,100.00
2022-10-18T03:04:01.286Z,100.00
2022-10-18T03:07:17.396Z,100.00
2022-10-18T03:10:33.511Z,100.00
2022-10-18T03:13:51.003Z,100.00
2022-10-18T03:17:07.425Z,100.00
2022-10-18T03:20:25.336Z,100.00
2022-10-18T03:23:42.503Z,100.00
2022-10-18T03:26:58.722Z,100.00
2022-10-18T03:30:17.274Z,100.00
2022-10-18T03:33:33.297Z,100.00
2022-10-18T03:36:49.434Z,100.00
2022-10-18T03:40:05.460Z,100.00
2022-10-18T03:46:36.877Z,100.00
2022-10-18T03:49:56.251Z,100.00
2022-10-18T03:53:11.116Z,100.00
2022-10-18T03:59:42.824Z,100.00
2022-10-18T04:02:58.776Z,100.00
2022-10-18T04:06:15.209Z,100.00
2022-10-18T04:09:32.619Z,100.00
2022-10-18T04:16:03.821Z,100.00
2022-10-18T04:19:20.088Z,100.00
2022-10-18T04:22:37.453Z,100.00
2022-10-18T04:25:53.412Z,100.00
2022-10-18T04:29:09.478Z,100.00
2022-10-18T04:32:28.743Z,100.00
2022-10-18T04:35:44.662Z,100.00
2022-10-18T04:39:00.632Z,100.00
2022-10-18T04:42:16.626Z,100.00
2022-10-18T04:45:33.542Z,100.00
2022-10-18T04:48:50.367Z,100.00
2022-10-18T04:52:06.385Z,100.00
2022-10-18T04:55:22.555Z,100.00
2022-10-18T04:58:38.727Z,100.00
2022-10-18T05:01:54.870Z,100.00
2022-10-18T05:05:14.003Z,100.00
2022-10-18T05:08:29.406Z,100.00
2022-10-18T05:15:03.181Z,100.00
2022-10-18T05:18:19.103Z,100.00
2022-10-18T05:21:35.220Z,100.00
2022-10-18T05:24:53.453Z,100.00
2022-10-18T05:31:25.229Z,100.00
2022-10-18T05:34:41.436Z,100.00
2022-10-18T05:37:57.356Z,100.00
2022-10-18T05:41:16.332Z,100.00
2022-10-18T05:44:32.415Z,100.00
2022-10-18T05:47:48.468Z,100.00
2022-10-18T05:51:07.457Z,100.00
2022-10-18T05:54:25.735Z,100.00
2022-10-18T05:57:41.918Z,100.00
2022-10-18T06:00:57.965Z,100.00
2022-10-18T06:04:15.262Z,100.00
2022-10-18T06:07:31.521Z,100.00
2022-10-18T06:15:07.768Z,100.00
2022-10-18T06:18:24.585Z,100.00
2022-10-18T06:21:41.186Z,100.00
2022-10-18T06:24:57.449Z,100.00
2022-10-18T06:28:15.698Z,100.00
2022-10-18T06:31:31.846Z,100.00
2022-10-18T06:34:47.915Z,100.00
2022-10-18T06:38:04.254Z,100.00
2022-10-18T06:44:36.106Z,100.00
2022-10-18T06:47:52.154Z,100.00
2022-10-18T06:51:11.283Z,100.00
2022-10-18T06:54:27.018Z,100.00
2022-10-18T07:00:58.995Z,100.00
2022-10-18T07:04:15.248Z,100.00
2022-10-18T07:07:31.760Z,100.00
2022-10-18T07:10:48.299Z,100.00
2022-10-18T07:17:20.237Z,99.67
2022-10-18T07:20:36.341Z,89.03
2022-10-18T07:23:53.967Z,83.78
2022-10-18T07:27:10.218Z,83.25
2022-10-18T07:30:27.227Z,88.32
2022-10-18T07:33:43.739Z,85.82
2022-10-18T07:37:02.169Z,90.59
2022-10-18T07:40:21.027Z,88.35
2022-10-18T07:43:38.297Z,93.84
2022-10-18T07:46:54.075Z,92.40
2022-10-18T07:50:10.471Z,91.68
2022-10-18T07:53:26.716Z,93.42
2022-10-18T07:59:59.542Z,92.91
2022-10-18T08:03:15.710Z,89.90
2022-10-18T08:06:32.340Z,91.88
2022-10-18T08:09:48.667Z,94.63
2022-10-18T08:16:24.528Z,94.38
2022-10-18T08:19:52.894Z,91.41
2022-10-18T08:23:01.762Z,89.88
2022-10-18T08:29:34.156Z,90.60
2022-10-18T08:32:50.363Z,90.10
2022-10-18T08:36:08.190Z,88.78
2022-10-18T08:39:24.375Z,93.51
2022-10-18T08:45:57.323Z,90.67
2022-10-18T08:49:16.714Z,86.85
2022-10-18T08:56:00.419Z,85.72
2022-10-18T09:02:52.926Z,88.56
2022-10-18T09:06:19.865Z,87.29
2022-10-18T09:09:47.963Z,82.97
2022-10-18T09:16:22.853Z,88.69
2022-10-18T09:19:53.887Z,82.35
2022-10-18T09:23:15.902Z,85.44
2022-10-18T09:29:59.465Z,81.66
2022-10-18T09:33:41.416Z,86.68
2022-10-18T09:37:00.388Z,86.40
2022-10-18T09:40:25.386Z,84.07
2022-10-18T09:43:54.340Z,83.11
2022-10-18T09:47:16.855Z,81.03
2022-10-18T09:50:38.127Z,84.93
2022-10-18T09:54:02.721Z,81.83
2022-10-18T09:57:24.046Z,82.74
2022-10-18T10:00:44.743Z,77.05
2022-10-18T10:04:01.162Z,82.48
2022-10-18T10:07:26.844Z,78.63
2022-10-18T10:10:46.846Z,80.77
2022-10-18T10:14:12.255Z,79.63
2022-10-18T10:17:34.005Z,76.17
2022-10-18T10:20:57.418Z,72.50
2022-10-18T10:24:18.796Z,77.51
2022-10-18T10:27:41.222Z,74.17
2022-10-18T10:30:58.017Z,74.64
2022-10-18T10:34:25.524Z,71.62
2022-10-18T10:37:46.758Z,71.78
2022-10-18T10:41:03.437Z,70.25
2022-10-18T10:44:27.439Z,70.02
2022-10-18T10:47:44.594Z,75.09
2022-10-18T10:51:06.588Z,69.18
2022-10-18T10:54:27.534Z,70.71
2022-10-18T11:00:59.568Z,69.01
2022-10-18T11:04:33.558Z,66.66
2022-10-18T11:07:53.162Z,68.11
2022-10-18T11:11:20.745Z,67.62
2022-10-18T11:17:56.291Z,66.13
2022-10-18T11:21:17.698Z,65.43
2022-10-18T11:24:34.044Z,65.57
2022-10-18T11:27:54.324Z,68.19
2022-10-18T11:31:22.581Z,67.30
2022-10-18T11:35:01.146Z,64.97
2022-10-18T11:38:27.560Z,65.80
2022-10-18T11:41:46.827Z,65.28
2022-10-18T11:46:08.947Z,60.54
2022-10-18T11:50:01.904Z,66.03
2022-10-18T11:53:25.434Z,66.95
2022-10-18T11:56:47.934Z,65.05
2022-10-18T12:00:33.106Z,67.59
2022-10-18T12:04:02.831Z,65.53
2022-10-18T12:07:27.784Z,64.46
2022-10-18T12:11:03.899Z,64.30
2022-10-18T12:14:05.490Z,64.42
2022-10-18T12:17:42.927Z,63.25
2022-10-18T12:20:49.094Z,64.26
2022-10-18T12:24:10.800Z,65.80
2022-10-18T12:30:53.818Z,66.21
2022-10-18T12:34:15.307Z,63.43
2022-10-18T12:38:05.314Z,63.75
2022-10-18T12:41:26.245Z,63.17
2022-10-18T12:44:43.564Z,64.75
2022-10-18T12:48:00.388Z,63.97
2022-10-18T12:51:24.335Z,63.90
2022-10-18T12:54:42.770Z,64.95
2022-10-18T12:58:37.745Z,63.40
2022-10-18T13:02:34.164Z,64.11
2022-10-18T13:06:06.843Z,63.95
2022-10-18T13:09:36.061Z,64.02
2022-10-18T13:13:38.665Z,65.17
2022-10-18T13:16:48.761Z,63.70
2022-10-18T13:20:26.542Z,63.17
2022-10-18T13:23:48.507Z,61.50
2022-10-18T13:27:41.340Z,60.58
2022-10-18T13:31:00.166Z,61.13
2022-10-18T13:34:39.819Z,63.35
2022-10-18T13:38:07.147Z,60.90
2022-10-18T13:41:27.564Z,57.50
2022-10-18T13:44:51.088Z,57.35
2022-10-18T13:48:35.420Z,58.46
2022-10-18T13:52:08.969Z,61.28
2022-10-18T13:55:42.664Z,61.69
2022-10-18T13:59:23.980Z,62.13
2022-10-18T14:03:00.146Z,61.77
2022-10-18T14:06:23.285Z,65.08
2022-10-18T14:09:52.491Z,64.04
2022-10-18T14:13:12.092Z,65.63
2022-10-18T14:16:42.210Z,66.00
2022-10-18T14:20:02.451Z,65.70
2022-10-18T14:23:23.541Z,65.83
2022-10-18T14:29:56.672Z,66.77
2022-10-18T14:33:22.962Z,65.86
2022-10-18T14:36:44.880Z,67.12
2022-10-18T14:40:01.053Z,68.49
2022-10-18T14:43:23.380Z,70.05
2022-10-18T14:46:42.229Z,72.10
2022-10-18T14:49:59.673Z,73.61
2022-10-18T14:53:19.866Z,73.53
2022-10-18T14:56:42.103Z,73.88
2022-10-18T15:00:02.748Z,73.91
2022-10-18T15:03:23.607Z,76.94
2022-10-18T15:06:40.817Z,76.71
2022-10-18T15:09:58.929Z,81.42
2022-10-18T15:13:16.090Z,81.30
2022-10-18T15:16:35.283Z,82.30
2022-10-18T15:20:06.314Z,82.21
2022-10-18T15:23:41.581Z,85.33
2022-10-18T15:27:02.919Z,86.81
2022-10-18T15:30:28.668Z,86.84
2022-10-18T15:33:44.864Z,87.62
2022-10-18T15:37:02.788Z,90.13
2022-10-18T15:40:45.866Z,89.85
2022-10-18T15:44:14.171Z,91.09
2022-10-18T15:47:30.881Z,96.87
2022-10-18T15:50:50.829Z,94.31
2022-10-18T15:54:07.221Z,93.72
2022-10-18T15:57:27.899Z,96.48
2022-10-18T16:00:44.467Z,100.00
2022-10-18T16:04:01.214Z,99.56
2022-10-18T16:07:20.361Z,100.00
2022-10-18T16:10:36.472Z,98.45
2022-10-18T16:13:55.271Z,95.77
2022-10-18T16:17:15.033Z,92.89
2022-10-18T16:20:32.836Z,97.05
2022-10-18T16:23:48.936Z,96.51
2022-10-18T16:27:05.255Z,94.37
2022-10-18T16:30:25.774Z,92.86
2022-10-18T16:33:43.536Z,94.59
2022-10-18T16:37:00.108Z,93.71
2022-10-18T16:40:35.515Z,93.75
2022-10-18T16:43:53.669Z,94.46
2022-10-18T16:47:10.443Z,94.79
2022-10-18T16:50:29.800Z,92.12
2022-10-18T16:53:47.205Z,96.31
2022-10-18T16:57:03.826Z,92.09
2022-10-18T17:00:27.254Z,93.17
2022-10-18T17:03:46.531Z,92.54
2022-10-18T17:07:06.321Z,93.02
2022-10-18T17:10:27.209Z,94.31
2022-10-18T17:13:43.581Z,93.75
2022-10-18T17:16:59.724Z,94.91
2022-10-18T17:20:24.449Z,92.43
2022-10-18T17:23:40.913Z,95.35
2022-10-18T17:26:57.013Z,95.19
2022-10-18T17:30:18.580Z,93.47
2022-10-18T17:33:34.796Z,95.09
2022-10-18T17:36:51.028Z,95.60
2022-10-18T17:40:07.564Z,95.39
2022-10-18T17:43:24.029Z,94.65
2022-10-18T17:46:39.791Z,95.69
2022-10-18T17:49:56.464Z,95.68
2022-10-18T17:53:14.186Z,94.10
2022-10-18T17:56:32.379Z,93.93
2022-10-18T17:59:49.945Z,93.01
2022-10-18T18:03:08.741Z,93.14
2022-10-18T18:06:31.144Z,94.03
2022-10-18T18:09:47.807Z,95.19
2022-10-18T18:13:04.302Z,95.05
2022-10-18T18:16:28.047Z,93.30
2022-10-18T18:19:44.701Z,95.02
2022-10-18T18:23:01.286Z,95.20
2022-10-18T18:26:17.998Z,93.26
2022-10-18T18:29:36.277Z,90.77
2022-10-18T18:32:52.784Z,89.32
2022-10-18T18:36:10.266Z,91.18
2022-10-18T18:39:30.850Z,91.81
2022-10-18T18:43:01.639Z,90.16
2022-10-18T18:46:05.436Z,91.74
2022-10-18T18:49:22.165Z,90.26
2022-10-18T18:52:38.384Z,91.36
2022-10-18T18:55:54.507Z,90.34
2022-10-18T18:59:13.057Z,90.09
2022-10-18T19:02:29.252Z,89.14
2022-10-18T19:05:45.864Z,90.52
2022-10-18T19:09:05.396Z,88.14
2022-10-18T19:12:22.631Z,88.41
2022-10-18T19:15:39.335Z,89.65
2022-10-18T19:19:02.503Z,90.78
2022-10-18T19:22:19.426Z,90.20
2022-10-18T19:25:36.632Z,90.19
2022-10-18T19:28:52.996Z,91.05
2022-10-18T19:32:12.774Z,93.58
2022-10-18T19:35:29.335Z,92.78
2022-10-18T19:38:46.441Z,92.85
2022-10-18T19:42:04.687Z,92.87
2022-10-18T19:45:20.911Z,92.44
2022-10-18T19:48:37.019Z,92.37
2022-10-18T19:51:54.358Z,92.19
2022-10-18T19:55:11.761Z,92.00
2022-10-18T19:58:28.149Z,92.32
2022-10-18T20:01:44.602Z,92.93
2022-10-18T20:05:01.124Z,93.50
2022-10-18T20:08:17.227Z,92.36
2022-10-18T20:11:35.284Z,92.27
2022-10-18T20:14:51.396Z,92.36
2022-10-18T20:18:07.521Z,93.60
2022-10-18T20:21:25.517Z,93.72
2022-10-18T20:24:41.602Z,94.27
2022-10-18T20:27:57.699Z,95.09
2022-10-18T20:31:18.549Z,95.78
2022-10-18T20:34:34.755Z,95.91
2022-10-18T20:37:51.061Z,96.53
2022-10-18T20:41:14.035Z,98.20
2022-10-18T20:44:31.939Z,99.64
2022-10-18T20:47:48.315Z,100.00
2022-10-18T20:51:06.478Z,100.00
2022-10-18T20:54:23.467Z,100.00
2022-10-18T20:57:40.839Z,100.00
2022-10-18T21:00:57.253Z,100.00
2022-10-18T21:04:15.857Z,100.00
2022-10-18T21:07:32.226Z,100.00
2022-10-18T21:10:48.627Z,100.00
2022-10-18T21:14:09.228Z,100.00
2022-10-18T21:17:25.273Z,100.00
2022-10-18T21:20:40.754Z,100.00
2022-10-18T21:23:57.659Z,100.00
2022-10-18T21:27:14.984Z,100.00
2022-10-18T21:30:31.051Z,100.00
2022-10-18T21:33:47.811Z,100.00
2022-10-18T21:37:03.922Z,100.00
2022-10-18T21:40:21.349Z,100.00
2022-10-18T21:43:37.598Z,100.00
2022-10-18T21:46:55.694Z,100.00
2022-10-18T21:50:12.363Z,100.00
2022-10-18T21:53:28.759Z,100.00
2022-10-18T21:56:45.782Z,100.00
2022-10-18T22:00:02.259Z,100.00
2022-10-18T22:03:19.993Z,100.00
2022-10-18T22:06:38.338Z,100.00
2022-10-18T22:09:54.551Z,100.00
2022-10-18T22:13:10.626Z,100.00
2022-10-18T22:16:27.247Z,100.00
2022-10-18T22:19:44.220Z,100.00
2022-10-18T22:23:01.898Z,100.00
2022-10-18T22:26:20.763Z,100.00
2022-10-18T22:29:36.759Z,100.00
2022-10-18T22:32:52.806Z,100.00
2022-10-18T22:36:09.239Z,100.00
2022-10-18T22:39:29.804Z,100.00
2022-10-18T22:42:43.716Z,100.00
2022-10-18T22:45:59.760Z,100.00
2022-10-18T22:49:18.623Z,100.00
2022-10-18T22:52:34.893Z,100.00
2022-10-18T22:55:51.974Z,100.00
2022-10-18T22:59:08.428Z,100.00
2022-10-18T23:02:24.629Z,100.00
2022-10-18T23:05:46.354Z,100.00
2022-10-18T23:09:05.606Z,100.00
2022-10-18T23:12:23.871Z,100.00
2022-10-18T23:15:40.119Z,100.00
2022-10-18T23:18:59.440Z,100.00
2022-10-18T23:22:17.547Z,100.00
2022-10-18T23:25:34.615Z,100.00
2022-10-18T23:28:53.457Z,100.00
2022-10-18T23:32:09.781Z,100.00
2022-10-18T23:35:25.903Z,100.00
2022-10-18T23:38:43.241Z,100.00
2022-10-18T23:41:59.539Z,100.00
2022-10-18T23:45:17.984Z,100.00
2022-10-18T23:48:35.005Z,100.00
2022-10-18T23:51:52.552Z,100.00
2022-10-18T23:55:08.815Z,100.00
2022-10-18T23:58:24.909Z,100.00
